Montauk, New York
Current Conditions -  °F | °C
As of 1:56 AM on Thursday 27 Nov 2014 (Local Time) from KGON Reporting Station
Light Rain Light Rain  
Wind Chill: 24°   Ceiling: 3800
Heat Index: 34°   Visibility: 5mi
Dew Point: 34°   Wind: 15mph
Humidity: 100%   Direction: 330°NNW
Pressure: 29.76"   Gusts: 24mph
Location:  41.04°N, 71.95°W
Report Text: KGON 270656Z AUTO 33013G21KT 5SM -RA BR SCT012 OVC038 01/01 A2976 RMK AO2 RAB09UPB42E50SNE09 SLP077 P0000 T00110011
Loading
Personal Weather Stations






























Interactive Weather Map New forecast layout! Learn more

10-Day Weather Forecast

Advertisements
Track Severe Weather on mobile